createdAt,value
2017-08-29T00:00:23.495Z,17.49
2017-08-29T00:00:51.327Z,17.49
2017-08-29T00:01:19.121Z,17.42
2017-08-29T00:01:47.128Z,17.41
2017-08-29T00:02:14.986Z,17.46
2017-08-29T00:02:42.893Z,17.44
2017-08-29T00:03:10.904Z,17.44
2017-08-29T00:03:38.718Z,17.59
2017-08-29T00:04:06.858Z,17.53
2017-08-29T00:04:34.983Z,17.53
2017-08-29T00:05:02.996Z,17.56
2017-08-29T00:05:31.019Z,17.46
2017-08-29T00:05:59.006Z,17.54
2017-08-29T00:06:27.123Z,17.53
2017-08-29T00:06:55.240Z,17.54
2017-08-29T00:07:23.411Z,17.57
2017-08-29T00:07:51.561Z,17.59
2017-08-29T00:08:19.572Z,17.59
2017-08-29T00:08:47.470Z,17.56
2017-08-29T00:09:15.400Z,17.71
2017-08-29T00:09:43.509Z,17.66
2017-08-29T00:10:11.628Z,17.59
2017-08-29T00:10:39.677Z,17.57
2017-08-29T00:11:07.706Z,17.52
2017-08-29T00:11:35.519Z,17.5
2017-08-29T00:12:03.531Z,17.49
2017-08-29T00:12:31.551Z,17.37
2017-08-29T00:12:59.572Z,17.39
2017-08-29T00:13:27.558Z,17.37
2017-08-29T00:13:55.628Z,17.32
2017-08-29T00:14:23.542Z,17.32
2017-08-29T00:14:51.341Z,17.34
2017-08-29T00:15:19.249Z,17.31
2017-08-29T00:15:47.400Z,17.31
2017-08-29T00:16:15.436Z,17.3
2017-08-29T00:16:43.431Z,17.28
2017-08-29T00:17:11.372Z,17.27
2017-08-29T00:17:39.293Z,17.31
2017-08-29T00:18:07.425Z,17.28
2017-08-29T00:18:35.544Z,17.27
2017-08-29T00:19:03.473Z,17.28
2017-08-29T00:19:31.504Z,17.34
2017-08-29T00:19:59.620Z,17.23
2017-08-29T00:20:27.665Z,17.34
2017-08-29T00:20:55.775Z,17.39
2017-08-29T00:21:23.922Z,17.31
2017-08-29T00:21:51.910Z,17.32
2017-08-29T00:22:20.015Z,17.34
2017-08-29T00:22:47.992Z,17.31
2017-08-29T00:23:15.683Z,17.34
2017-08-29T00:23:43.791Z,17.32
2017-08-29T00:24:11.902Z,17.34
2017-08-29T00:24:39.918Z,17.34
2017-08-29T00:25:07.924Z,17.27
2017-08-29T00:25:35.946Z,17.31
2017-08-29T00:26:03.959Z,17.32
2017-08-29T00:26:32.092Z,17.32
2017-08-29T00:27:00.073Z,17.32
2017-08-29T00:27:28.210Z,17.34
2017-08-29T00:27:56.686Z,17.37
2017-08-29T00:28:24.696Z,17.37
2017-08-29T00:28:52.819Z,17.38
2017-08-29T00:29:20.841Z,17.34
2017-08-29T00:29:48.845Z,17.38
2017-08-29T00:30:16.938Z,17.44
2017-08-29T00:30:44.777Z,17.38
2017-08-29T00:31:12.916Z,17.37
2017-08-29T00:31:40.929Z,17.38
2017-08-29T00:32:08.936Z,17.38
2017-08-29T00:32:36.915Z,17.37
2017-08-29T00:33:04.939Z,17.37
2017-08-29T00:33:47.924Z,17.38
2017-08-29T00:34:16.143Z,17.47
2017-08-29T00:34:58.860Z,17.38
2017-08-29T00:35:27.545Z,17.34
2017-08-29T00:35:55.707Z,17.39
2017-08-29T00:36:38.225Z,17.37
2017-08-29T00:37:06.237Z,17.42
2017-08-29T00:37:34.346Z,17.42
2017-08-29T00:38:02.315Z,17.35
2017-08-29T00:38:30.255Z,17.37
2017-08-29T00:38:58.264Z,17.44
2017-08-29T00:39:26.380Z,17.39
2017-08-29T00:39:54.478Z,17.38
2017-08-29T00:40:22.388Z,17.38
2017-08-29T00:40:50.336Z,17.35
2017-08-29T00:41:18.361Z,17.32
2017-08-29T00:41:46.367Z,17.34
2017-08-29T00:42:14.466Z,17.32
2017-08-29T00:42:42.564Z,17.41
2017-08-29T00:43:10.658Z,17.41
2017-08-29T00:43:38.674Z,17.31
2017-08-29T00:44:06.781Z,17.35
2017-08-29T00:44:34.842Z,17.35
2017-08-29T00:45:02.992Z,17.35
2017-08-29T00:45:31.018Z,17.34
2017-08-29T00:45:58.950Z,17.32
2017-08-29T00:46:26.972Z,17.3
2017-08-29T00:46:55.118Z,17.34
2017-08-29T00:47:23.121Z,17.23
2017-08-29T00:47:51.257Z,17.23
2017-08-29T00:48:19.159Z,17.27
2017-08-29T00:48:47.078Z,17.17
2017-08-29T00:49:15.065Z,17.19
2017-08-29T00:49:43.159Z,17.17
2017-08-29T00:50:11.159Z,17.09
2017-08-29T00:50:39.423Z,17.16
2017-08-29T00:51:07.565Z,17.14
2017-08-29T00:51:35.579Z,17.19
2017-08-29T00:52:04.486Z,17.19
2017-08-29T00:52:32.871Z,17.16
2017-08-29T00:53:00.905Z,17.14
2017-08-29T00:53:28.941Z,17.16
2017-08-29T00:53:56.984Z,17.04
2017-08-29T00:54:24.931Z,17.07
2017-08-29T00:54:53.044Z,17.07
2017-08-29T00:55:21.068Z,17.07
2017-08-29T00:55:49.090Z,17.07
2017-08-29T00:56:17.012Z,17.07
2017-08-29T00:56:45.158Z,17.1
2017-08-29T00:57:13.080Z,17.07
2017-08-29T00:57:41.330Z,17.02
2017-08-29T00:58:09.384Z,16.99
2017-08-29T00:58:37.530Z,16.98
2017-08-29T00:59:06.866Z,16.89
2017-08-29T00:59:34.588Z,16.95
2017-08-29T01:00:02.625Z,16.84
2017-08-29T01:00:30.724Z,16.91
2017-08-29T01:00:58.833Z,16.87
2017-08-29T01:01:26.862Z,16.86
2017-08-29T01:01:54.975Z,16.82
2017-08-29T01:02:22.976Z,16.83
2017-08-29T01:02:50.792Z,16.77
2017-08-29T01:03:18.793Z,16.74
2017-08-29T01:03:46.825Z,16.79
2017-08-29T01:04:14.949Z,16.77
2017-08-29T01:04:43.049Z,16.74
2017-08-29T01:05:11.058Z,16.79
2017-08-29T01:05:39.041Z,16.8
2017-08-29T01:06:07.048Z,16.74
2017-08-29T01:06:35.152Z,16.79
2017-08-29T01:07:03.068Z,16.73
2017-08-29T01:07:31.182Z,16.74
2017-08-29T01:07:59.329Z,16.72
2017-08-29T01:08:27.470Z,16.72
2017-08-29T01:08:55.473Z,16.65
2017-08-29T01:09:23.613Z,16.59
2017-08-29T01:09:51.751Z,16.69
2017-08-29T01:10:19.779Z,16.55
2017-08-29T01:10:47.677Z,16.61
2017-08-29T01:11:15.607Z,16.64
2017-08-29T01:11:43.610Z,16.68
2017-08-29T01:12:11.538Z,16.64
2017-08-29T01:12:39.557Z,16.51
2017-08-29T01:13:07.676Z,16.66
2017-08-29T01:13:36.022Z,16.61
2017-08-29T01:14:03.934Z,16.54
2017-08-29T01:14:32.043Z,16.57
2017-08-29T01:15:00.046Z,16.58
2017-08-29T01:15:27.868Z,16.58
2017-08-29T01:15:55.980Z,16.46
2017-08-29T01:16:24.006Z,16.58
2017-08-29T01:16:51.932Z,16.59
2017-08-29T01:17:19.953Z,16.54
2017-08-29T01:17:47.962Z,16.54
2017-08-29T01:18:16.072Z,16.43
2017-08-29T01:18:44.081Z,16.55
2017-08-29T01:19:12.186Z,16.44
2017-08-29T01:19:40.305Z,16.47
2017-08-29T01:20:08.201Z,16.47
2017-08-29T01:20:36.310Z,16.39
2017-08-29T01:21:04.433Z,16.31
2017-08-29T01:21:32.322Z,16.31
2017-08-29T01:22:00.477Z,16.29
2017-08-29T01:22:28.474Z,16.36
2017-08-29T01:22:56.522Z,16.31
2017-08-29T01:23:24.431Z,16.29
2017-08-29T01:23:52.455Z,16.32
2017-08-29T01:24:20.457Z,16.28
2017-08-29T01:24:48.357Z,16.31
2017-08-29T01:25:16.364Z,16.31
2017-08-29T01:25:44.397Z,16.32
2017-08-29T01:26:12.569Z,16.28
2017-08-29T01:26:40.694Z,16.24
2017-08-29T01:27:08.721Z,16.29
2017-08-29T01:27:36.804Z,16.29
2017-08-29T01:28:04.817Z,16.4
2017-08-29T01:28:32.730Z,16.34
2017-08-29T01:29:00.563Z,16.29
2017-08-29T01:29:28.569Z,16.32
2017-08-29T01:29:56.679Z,16.37
2017-08-29T01:30:24.498Z,16.39
2017-08-29T01:30:52.516Z,16.37
2017-08-29T01:31:20.666Z,16.29
2017-08-29T01:31:48.786Z,16.36
2017-08-29T01:32:16.857Z,16.37
2017-08-29T01:32:44.865Z,16.32
2017-08-29T01:33:12.895Z,16.39
2017-08-29T01:33:41.013Z,16.37
2017-08-29T01:34:09.145Z,16.4
2017-08-29T01:34:37.248Z,16.46
2017-08-29T01:35:05.254Z,16.49
2017-08-29T01:35:33.076Z,16.41
2017-08-29T01:36:01.005Z,16.55
2017-08-29T01:36:29.126Z,16.51
2017-08-29T01:36:57.231Z,16.59
2017-08-29T01:37:25.138Z,16.59
2017-08-29T01:37:53.247Z,16.49
2017-08-29T01:38:21.262Z,16.55
2017-08-29T01:38:49.274Z,16.51
2017-08-29T01:39:17.306Z,16.5
2017-08-29T01:39:45.300Z,16.54
2017-08-29T01:40:13.202Z,16.58
2017-08-29T01:40:41.216Z,16.57
2017-08-29T01:41:09.214Z,16.64
2017-08-29T01:41:37.215Z,16.55
2017-08-29T01:42:05.221Z,16.51
2017-08-29T01:42:33.257Z,16.51
2017-08-29T01:43:01.301Z,16.54
2017-08-29T01:43:29.433Z,16.55
2017-08-29T01:43:57.547Z,16.49
2017-08-29T01:44:25.527Z,16.59
2017-08-29T01:44:53.654Z,16.51
2017-08-29T01:45:21.367Z,16.5
2017-08-29T01:45:49.475Z,16.5
2017-08-29T01:46:17.586Z,16.57
2017-08-29T01:46:45.484Z,16.59
2017-08-29T01:47:13.509Z,16.5
2017-08-29T01:47:41.521Z,16.57
2017-08-29T01:48:09.531Z,16.54
2017-08-29T01:48:37.546Z,16.57
2017-08-29T01:49:05.555Z,16.54
2017-08-29T01:49:33.580Z,16.46
2017-08-29T01:50:01.705Z,16.46
2017-08-29T01:50:29.798Z,16.47
2017-08-29T01:50:57.803Z,16.41
2017-08-29T01:51:25.823Z,16.47
2017-08-29T01:51:53.853Z,16.4
2017-08-29T01:52:21.985Z,16.5
2017-08-29T01:52:50.072Z,16.47
2017-08-29T01:53:17.860Z,16.46
2017-08-29T01:53:45.978Z,16.47
2017-08-29T01:54:14.099Z,16.49
2017-08-29T01:54:42.203Z,16.47
2017-08-29T01:55:10.975Z,16.43
2017-08-29T01:55:39.103Z,16.39
2017-08-29T01:56:06.994Z,16.31
2017-08-29T01:56:35.101Z,16.32
2017-08-29T01:57:03.086Z,16.34
2017-08-29T01:57:31.180Z,16.29
2017-08-29T01:57:59.286Z,16.32
2017-08-29T01:58:27.420Z,16.32
2017-08-29T01:58:55.411Z,16.4
2017-08-29T01:59:23.420Z,16.32
2017-08-29T01:59:51.535Z,16.31
2017-08-29T02:00:19.559Z,16.43
2017-08-29T02:00:47.478Z,16.39
2017-08-29T02:01:15.526Z,16.36
2017-08-29T02:01:43.562Z,16.41
2017-08-29T02:02:11.499Z,16.47
2017-08-29T02:02:39.504Z,16.44
2017-08-29T02:03:07.621Z,16.49
2017-08-29T02:03:35.628Z,16.5
2017-08-29T02:04:03.755Z,16.47
2017-08-29T02:04:31.870Z,16.41
2017-08-29T02:05:00.010Z,16.46
2017-08-29T02:05:27.920Z,16.43
2017-08-29T02:05:55.946Z,16.46
2017-08-29T02:06:24.068Z,16.44
2017-08-29T02:06:52.185Z,16.44
2017-08-29T02:07:20.084Z,16.44
2017-08-29T02:07:48.088Z,16.34
2017-08-29T02:08:16.169Z,16.44
2017-08-29T02:08:44.286Z,16.36
2017-08-29T02:09:12.420Z,16.28
2017-08-29T02:09:40.540Z,16.29
2017-08-29T02:10:08.563Z,16.28
2017-08-29T02:10:36.471Z,16.31
2017-08-29T02:11:04.565Z,16.26
2017-08-29T02:11:32.438Z,16.26
2017-08-29T02:12:00.440Z,16.18
2017-08-29T02:12:28.354Z,16.26
2017-08-29T02:12:56.449Z,16.21
2017-08-29T02:13:24.445Z,16.26
2017-08-29T02:13:52.449Z,16.25
2017-08-29T02:14:20.470Z,16.28
2017-08-29T02:14:48.594Z,16.21
2017-08-29T02:15:16.717Z,16.16
2017-08-29T02:15:44.727Z,16.18
2017-08-29T02:16:12.648Z,16.21
2017-08-29T02:16:40.667Z,16.12
2017-08-29T02:17:08.688Z,16.09
2017-08-29T02:17:36.630Z,16.05
2017-08-29T02:18:04.756Z,16.06
2017-08-29T02:18:32.870Z,16.09
2017-08-29T02:19:00.858Z,16.08
2017-08-29T02:19:28.986Z,16.05
2017-08-29T02:19:56.990Z,15.98
2017-08-29T02:20:24.986Z,16
2017-08-29T02:20:53.122Z,16
2017-08-29T02:21:21.227Z,16.03
2017-08-29T02:21:49.367Z,16.02
2017-08-29T02:22:17.357Z,16.05
2017-08-29T02:22:45.370Z,16.08
2017-08-29T02:23:13.281Z,16.09
2017-08-29T02:23:41.216Z,16.08
2017-08-29T02:24:09.135Z,16.09
2017-08-29T02:24:51.774Z,16.03
2017-08-29T02:25:19.786Z,16.09
2017-08-29T02:25:47.604Z,16.12
2017-08-29T02:26:15.596Z,16.12
2017-08-29T02:26:43.614Z,16.06
2017-08-29T02:27:11.723Z,16.09
2017-08-29T02:27:39.835Z,16.21
2017-08-29T02:28:07.764Z,16.17
2017-08-29T02:28:35.784Z,16.12
2017-08-29T02:29:03.897Z,16.13
2017-08-29T02:29:32.034Z,16.09
2017-08-29T02:30:00.025Z,16.1
2017-08-29T02:30:28.070Z,16.1
2017-08-29T02:30:56.061Z,16.09
2017-08-29T02:31:24.161Z,16.06
2017-08-29T02:31:52.298Z,16.05
2017-08-29T02:32:20.136Z,16.06
2017-08-29T02:32:48.233Z,16.13
2017-08-29T02:33:16.341Z,16.09
2017-08-29T02:33:44.475Z,16.05
2017-08-29T02:34:12.482Z,16.02
2017-08-29T02:34:40.640Z,16.02
2017-08-29T02:35:08.727Z,16.09
2017-08-29T02:35:36.829Z,16
2017-08-29T02:36:04.938Z,16.1
2017-08-29T02:36:32.875Z,16.06
2017-08-29T02:37:00.813Z,16.03
2017-08-29T02:37:28.911Z,15.98
2017-08-29T02:37:57.043Z,16.02
2017-08-29T02:38:25.044Z,16.03
2017-08-29T02:38:53.047Z,16.02
2017-08-29T02:39:21.188Z,15.99
2017-08-29T02:39:49.295Z,16.03
2017-08-29T02:40:17.328Z,16
2017-08-29T02:40:45.439Z,16.08
2017-08-29T02:41:13.589Z,15.98
2017-08-29T02:41:41.576Z,15.96
2017-08-29T02:42:09.775Z,15.98
2017-08-29T02:42:37.602Z,16.02
2017-08-29T02:43:05.596Z,15.92
2017-08-29T02:43:33.707Z,16.05
2017-08-29T02:44:01.815Z,15.98
2017-08-29T02:44:29.846Z,15.99
2017-08-29T02:44:57.946Z,15.98
2017-08-29T02:45:26.062Z,16.02
2017-08-29T02:45:54.076Z,16.03
2017-08-29T02:46:22.182Z,16.03
2017-08-29T02:46:50.311Z,16.05
2017-08-29T02:47:18.582Z,16.08
2017-08-29T02:47:46.671Z,16
2017-08-29T02:48:14.686Z,15.99
2017-08-29T02:48:42.766Z,16.05
2017-08-29T02:49:10.999Z,16.08
2017-08-29T02:49:39.016Z,16
2017-08-29T02:50:06.931Z,16.03
2017-08-29T02:50:34.818Z,16.02
2017-08-29T02:51:02.724Z,15.99
2017-08-29T02:51:30.744Z,16.05
2017-08-29T02:51:58.643Z,16
2017-08-29T02:52:26.630Z,15.96
2017-08-29T02:52:54.856Z,16.05
2017-08-29T02:53:22.857Z,15.99
2017-08-29T02:53:50.972Z,16.06
2017-08-29T02:54:18.998Z,16
2017-08-29T02:54:47.121Z,15.9
2017-08-29T02:55:15.240Z,15.99
2017-08-29T02:55:43.322Z,15.96
2017-08-29T02:56:11.328Z,15.99
2017-08-29T02:56:39.471Z,15.91
2017-08-29T02:57:08.357Z,15.96
2017-08-29T02:57:36.379Z,16.05
2017-08-29T02:58:04.343Z,15.91
2017-08-29T02:58:32.426Z,15.98
2017-08-29T02:59:00.547Z,15.96
2017-08-29T02:59:28.658Z,15.88
2017-08-29T02:59:56.792Z,15.87
2017-08-29T03:00:24.891Z,15.91
2017-08-29T03:00:53.028Z,15.92
2017-08-29T03:01:21.134Z,15.92
2017-08-29T03:01:49.248Z,15.91
2017-08-29T03:02:17.361Z,15.87
2017-08-29T03:02:45.374Z,15.92
2017-08-29T03:03:13.378Z,15.91
2017-08-29T03:03:41.484Z,15.92
2017-08-29T03:04:09.568Z,15.91
2017-08-29T03:04:37.388Z,15.9
2017-08-29T03:05:05.507Z,15.92
2017-08-29T03:05:33.519Z,15.92
2017-08-29T03:06:01.661Z,15.84
2017-08-29T03:06:29.782Z,15.83
2017-08-29T03:06:57.793Z,15.85
2017-08-29T03:07:25.801Z,15.91
2017-08-29T03:07:54.484Z,15.87
2017-08-29T03:08:22.501Z,15.85
2017-08-29T03:08:50.408Z,15.84
2017-08-29T03:09:18.515Z,15.81
2017-08-29T03:09:46.619Z,15.8
2017-08-29T03:10:14.621Z,15.88
2017-08-29T03:10:42.730Z,15.88
2017-08-29T03:11:10.816Z,15.85
2017-08-29T03:11:38.729Z,15.76
2017-08-29T03:12:06.650Z,15.84
2017-08-29T03:12:34.661Z,15.83
2017-08-29T03:13:02.691Z,15.83
2017-08-29T03:13:30.613Z,15.72
2017-08-29T03:13:58.536Z,15.73
2017-08-29T03:14:26.474Z,15.75
2017-08-29T03:14:54.365Z,15.69
2017-08-29T03:15:22.451Z,15.75
2017-08-29T03:15:50.450Z,15.8
2017-08-29T03:16:18.346Z,15.72
2017-08-29T03:16:46.459Z,15.76
2017-08-29T03:17:14.378Z,15.72
2017-08-29T03:17:42.486Z,15.72
2017-08-29T03:18:10.579Z,15.72
2017-08-29T03:18:38.689Z,15.66
2017-08-29T03:19:06.771Z,15.69
2017-08-29T03:19:34.847Z,15.75
2017-08-29T03:20:02.837Z,15.73
2017-08-29T03:20:30.959Z,15.7
2017-08-29T03:20:58.949Z,15.65
2017-08-29T03:21:26.957Z,15.67
2017-08-29T03:21:55.006Z,15.62
2017-08-29T03:22:23.033Z,15.69
2017-08-29T03:22:51.040Z,15.67
2017-08-29T03:23:19.172Z,15.6
2017-08-29T03:23:47.180Z,15.63
2017-08-29T03:24:15.174Z,15.67
2017-08-29T03:24:43.194Z,15.66
2017-08-29T03:25:11.318Z,15.59
2017-08-29T03:25:39.435Z,15.63
2017-08-29T03:26:07.440Z,15.67
2017-08-29T03:26:35.471Z,15.62
2017-08-29T03:27:03.552Z,15.7
2017-08-29T03:27:31.643Z,15.7
2017-08-29T03:27:59.742Z,15.63
2017-08-29T03:28:27.855Z,15.66
2017-08-29T03:28:55.889Z,15.6
2017-08-29T03:29:23.913Z,15.72
2017-08-29T03:29:52.029Z,15.72
2017-08-29T03:30:19.958Z,15.7
2017-08-29T03:30:48.068Z,15.72
2017-08-29T03:31:16.104Z,15.69
2017-08-29T03:31:44.231Z,15.73
2017-08-29T03:32:12.240Z,15.72
2017-08-29T03:32:40.278Z,15.73
2017-08-29T03:33:08.372Z,15.69
2017-08-29T03:33:36.489Z,15.63
2017-08-29T03:34:04.402Z,15.65
2017-08-29T03:34:32.547Z,15.63
2017-08-29T03:35:00.648Z,15.67
2017-08-29T03:35:28.739Z,15.72
2017-08-29T03:35:56.839Z,15.65
2017-08-29T03:36:24.862Z,15.72
2017-08-29T03:36:52.768Z,15.73
2017-08-29T03:37:20.783Z,15.65
2017-08-29T03:37:48.910Z,15.67
2017-08-29T03:38:16.810Z,15.7
2017-08-29T03:38:44.938Z,15.7
2017-08-29T03:39:12.934Z,15.62
2017-08-29T03:39:40.943Z,15.65
2017-08-29T03:40:08.939Z,15.62
2017-08-29T03:40:37.045Z,15.6
2017-08-29T03:41:05.042Z,15.63
2017-08-29T03:41:33.062Z,15.66
2017-08-29T03:42:01.177Z,15.65
2017-08-29T03:42:29.199Z,15.72
2017-08-29T03:42:57.181Z,15.62
2017-08-29T03:43:25.181Z,15.63
2017-08-29T03:43:53.279Z,15.73
2017-08-29T03:44:21.381Z,15.62
2017-08-29T03:44:49.383Z,15.67
2017-08-29T03:45:17.477Z,15.7
2017-08-29T03:45:45.484Z,15.67
2017-08-29T03:46:13.597Z,15.63
2017-08-29T03:46:41.622Z,15.7
2017-08-29T03:47:09.649Z,15.72
2017-08-29T03:47:37.563Z,15.69
2017-08-29T03:48:05.689Z,15.72
2017-08-29T03:48:33.809Z,15.62
2017-08-29T03:49:01.900Z,15.54
2017-08-29T03:49:29.927Z,15.54
2017-08-29T03:49:57.919Z,15.54
2017-08-29T03:50:25.924Z,15.57
2017-08-29T03:50:53.952Z,15.54
2017-08-29T03:51:21.976Z,15.51
2017-08-29T03:51:50.056Z,15.55
2017-08-29T03:52:18.144Z,15.54
2017-08-29T03:52:46.051Z,15.51
2017-08-29T03:53:14.049Z,15.5
2017-08-29T03:53:42.173Z,15.48
2017-08-29T03:54:10.197Z,15.48
2017-08-29T03:54:38.310Z,15.51
2017-08-29T03:55:06.301Z,15.41
2017-08-29T03:55:34.421Z,15.41
2017-08-29T03:56:02.525Z,15.44
2017-08-29T03:56:30.629Z,15.41
2017-08-29T03:56:58.631Z,15.43
2017-08-29T03:57:26.867Z,15.39
2017-08-29T03:57:54.871Z,15.41
2017-08-29T03:58:23.003Z,15.33
2017-08-29T03:58:50.982Z,15.43
2017-08-29T03:59:19.099Z,15.39
2017-08-29T03:59:47.103Z,15.43
2017-08-29T04:00:15.127Z,15.33
2017-08-29T04:00:43.260Z,15.39
2017-08-29T04:01:11.357Z,15.36
2017-08-29T04:01:39.378Z,15.36
2017-08-29T04:02:07.489Z,15.36
2017-08-29T04:02:35.646Z,15.39
2017-08-29T04:03:03.747Z,15.29
2017-08-29T04:03:31.857Z,15.33
2017-08-29T04:03:59.780Z,15.41
2017-08-29T04:04:27.908Z,15.29
2017-08-29T04:04:56.045Z,15.29
2017-08-29T04:05:24.156Z,15.3
2017-08-29T04:05:52.271Z,15.32
2017-08-29T04:06:20.289Z,15.32
2017-08-29T04:06:48.179Z,15.33
2017-08-29T04:07:16.183Z,15.33
2017-08-29T04:07:44.210Z,15.29
2017-08-29T04:08:12.350Z,15.27
2017-08-29T04:08:40.361Z,15.32
2017-08-29T04:09:08.465Z,15.29
2017-08-29T04:09:36.586Z,15.3
2017-08-29T04:10:04.572Z,15.32
2017-08-29T04:10:32.665Z,15.32
2017-08-29T04:11:01.467Z,15.17
2017-08-29T04:11:29.488Z,15.19
2017-08-29T04:11:57.527Z,15.19
2017-08-29T04:12:25.640Z,15.15
2017-08-29T04:12:53.735Z,15.19
2017-08-29T04:13:21.843Z,15.14
2017-08-29T04:13:49.830Z,15.15
2017-08-29T04:14:17.835Z,15.12
2017-08-29T04:14:45.929Z,15.1
2017-08-29T04:15:14.006Z,15.1
2017-08-29T04:15:42.103Z,15.04
2017-08-29T04:16:10.106Z,15.1
2017-08-29T04:16:38.122Z,15.11
2017-08-29T04:17:06.260Z,15.05
2017-08-29T04:17:34.254Z,15.07
2017-08-29T04:18:02.346Z,15.07
2017-08-29T04:18:30.281Z,15.04
2017-08-29T04:18:58.365Z,15.15
2017-08-29T04:19:26.375Z,15.07
2017-08-29T04:19:54.366Z,15.12
2017-08-29T04:20:22.382Z,15.02
2017-08-29T04:20:50.302Z,15.07
2017-08-29T04:21:18.411Z,15.1
2017-08-29T04:21:46.433Z,15.18
2017-08-29T04:22:14.336Z,15.19
2017-08-29T04:22:42.335Z,15.18
2017-08-29T04:23:10.250Z,15.25
2017-08-29T04:23:38.255Z,15.18
2017-08-29T04:24:06.371Z,15.25
2017-08-29T04:24:34.388Z,15.19
2017-08-29T04:25:02.405Z,15.23
2017-08-29T04:25:30.521Z,15.18
2017-08-29T04:25:58.632Z,15.19
2017-08-29T04:26:26.707Z,15.25
2017-08-29T04:26:54.737Z,15.25
2017-08-29T04:27:22.751Z,15.32
2017-08-29T04:27:50.567Z,15.19
2017-08-29T04:28:18.676Z,15.25
2017-08-29T04:28:46.593Z,15.3
2017-08-29T04:29:14.591Z,15.27
2017-08-29T04:29:42.620Z,15.33
2017-08-29T04:30:10.549Z,15.22
2017-08-29T04:30:38.683Z,15.3
2017-08-29T04:31:06.736Z,15.23
2017-08-29T04:31:34.843Z,15.17
2017-08-29T04:32:02.946Z,15.19
2017-08-29T04:32:30.947Z,15.17
2017-08-29T04:32:58.959Z,15.18
2017-08-29T04:33:26.994Z,15.18
2017-08-29T04:33:55.008Z,15.12
2017-08-29T04:34:23.092Z,15.18
2017-08-29T04:34:51.177Z,15.15
2017-08-29T04:35:19.052Z,15.19
2017-08-29T04:35:47.067Z,15.19
2017-08-29T04:36:15.066Z,15.22
2017-08-29T04:36:43.166Z,15.26
2017-08-29T04:37:11.176Z,15.22
2017-08-29T04:37:39.261Z,15.19
2017-08-29T04:38:07.231Z,15.25
2017-08-29T04:38:35.317Z,15.18
2017-08-29T04:39:03.328Z,15.22
2017-08-29T04:39:31.364Z,15.19
2017-08-29T04:39:59.376Z,15.18
2017-08-29T04:40:27.392Z,15.23
2017-08-29T04:40:55.483Z,15.15
2017-08-29T04:41:23.604Z,15.18
2017-08-29T04:41:51.717Z,15.19
2017-08-29T04:42:19.527Z,15.14
2017-08-29T04:42:47.624Z,15.15
2017-08-29T04:43:15.605Z,15.04
2017-08-29T04:43:43.690Z,15.11
2017-08-29T04:44:11.785Z,15.14
2017-08-29T04:44:39.884Z,15.04
2017-08-29T04:45:08.007Z,15.11
2017-08-29T04:45:36.091Z,15.1
2017-08-29T04:46:04.194Z,15.15
2017-08-29T04:46:32.280Z,15.11
2017-08-29T04:47:01.026Z,15.12
2017-08-29T04:47:29.033Z,15.1
2017-08-29T04:47:57.137Z,15.1
2017-08-29T04:48:25.039Z,15.05
2017-08-29T04:48:53.116Z,15.05
2017-08-29T04:49:21.430Z,15
2017-08-29T04:49:49.449Z,15.02
2017-08-29T04:50:17.669Z,14.97
2017-08-29T04:50:45.766Z,14.99
2017-08-29T04:51:13.706Z,14.99
2017-08-29T04:51:41.835Z,15
2017-08-29T04:52:09.936Z,14.97
2017-08-29T04:52:37.940Z,15.05
2017-08-29T04:53:05.849Z,15.05
2017-08-29T04:53:33.855Z,14.93
2017-08-29T04:54:01.965Z,14.93
2017-08-29T04:54:29.888Z,14.96
2017-08-29T04:54:57.987Z,15.02
2017-08-29T04:55:26.024Z,14.99
2017-08-29T04:55:54.126Z,15
2017-08-29T04:56:22.031Z,15.15
2017-08-29T04:56:50.013Z,15.04
2017-08-29T04:57:18.110Z,15.04
2017-08-29T04:57:46.094Z,15.14
2017-08-29T04:58:14.022Z,15.08
2017-08-29T04:58:42.026Z,15.07
2017-08-29T04:59:10.158Z,15.11
2017-08-29T04:59:38.168Z,15.14
2017-08-29T05:00:06.263Z,15.07
2017-08-29T05:00:34.430Z,15.02
2017-08-29T05:01:02.466Z,15.04
2017-08-29T05:01:30.492Z,15.07
2017-08-29T05:01:58.592Z,15.11
2017-08-29T05:02:26.692Z,15.07
2017-08-29T05:02:54.585Z,15.04
2017-08-29T05:03:22.590Z,15.04
2017-08-29T05:03:50.616Z,15.1
2017-08-29T05:04:18.612Z,15.05
2017-08-29T05:04:46.614Z,15.11
2017-08-29T05:05:14.751Z,15.1
2017-08-29T05:05:42.741Z,15.12
2017-08-29T05:06:10.759Z,15.02
2017-08-29T05:06:38.849Z,15.07
2017-08-29T05:07:06.950Z,15.05
2017-08-29T05:07:34.943Z,15.05
2017-08-29T05:08:02.959Z,15.12
2017-08-29T05:08:30.857Z,15.17
2017-08-29T05:08:58.982Z,15.1
2017-08-29T05:09:27.006Z,15.08
2017-08-29T05:09:55.158Z,15
2017-08-29T05:10:23.260Z,15.07
2017-08-29T05:10:51.366Z,15.05
2017-08-29T05:11:19.388Z,15.05
2017-08-29T05:11:47.388Z,15.1
2017-08-29T05:12:15.397Z,15.08
2017-08-29T05:12:43.383Z,15.15
2017-08-29T05:13:11.524Z,15.05
2017-08-29T05:13:39.553Z,14.94
2017-08-29T05:14:07.654Z,15.04
2017-08-29T05:14:35.659Z,14.97
2017-08-29T05:15:03.752Z,14.96
2017-08-29T05:15:31.848Z,14.93
2017-08-29T05:15:59.866Z,14.93
2017-08-29T05:16:27.864Z,14.96
2017-08-29T05:16:55.972Z,15.04
2017-08-29T05:17:23.985Z,14.96
2017-08-29T05:17:51.876Z,14.89
2017-08-29T05:18:19.915Z,14.92
2017-08-29T05:18:48.035Z,14.89
2017-08-29T05:19:16.039Z,14.78
2017-08-29T05:19:44.167Z,14.78
2017-08-29T05:20:12.270Z,14.78
2017-08-29T05:20:40.103Z,14.68
2017-08-29T05:21:08.083Z,14.7
2017-08-29T05:21:36.098Z,14.66
2017-08-29T05:22:04.000Z,14.66
2017-08-29T05:22:32.140Z,14.71
2017-08-29T05:23:00.176Z,14.67
2017-08-29T05:23:28.181Z,14.59
2017-08-29T05:23:56.189Z,14.59
2017-08-29T05:24:24.317Z,14.58
2017-08-29T05:24:52.337Z,14.53
2017-08-29T05:25:20.431Z,14.55
2017-08-29T05:25:48.539Z,14.45
2017-08-29T05:26:16.534Z,14.48
2017-08-29T05:26:44.555Z,14.45
2017-08-29T05:27:12.665Z,14.38
2017-08-29T05:27:40.644Z,14.34
2017-08-29T05:28:08.537Z,14.37
2017-08-29T05:28:36.545Z,14.38
2017-08-29T05:29:04.561Z,14.31
2017-08-29T05:29:32.554Z,14.31
2017-08-29T05:30:00.564Z,14.25
2017-08-29T05:30:28.581Z,14.34
2017-08-29T05:30:56.684Z,14.3
2017-08-29T05:31:24.807Z,14.31
2017-08-29T05:31:52.726Z,14.33
2017-08-29T05:32:20.942Z,14.28
2017-08-29T05:32:48.952Z,14.31
2017-08-29T05:33:16.772Z,14.33
2017-08-29T05:33:44.866Z,14.33
2017-08-29T05:34:13.001Z,14.34
2017-08-29T05:34:40.992Z,14.37
2017-08-29T05:35:09.023Z,14.31
2017-08-29T05:35:37.055Z,14.34
2017-08-29T05:36:05.068Z,14.34
2017-08-29T05:36:33.075Z,14.36
2017-08-29T05:37:00.982Z,14.25
2017-08-29T05:37:29.119Z,14.36
2017-08-29T05:37:57.229Z,14.25
2017-08-29T05:38:25.352Z,14.3
2017-08-29T05:38:53.370Z,14.2
2017-08-29T05:39:21.472Z,14.33
2017-08-29T05:39:49.575Z,14.31
2017-08-29T05:40:17.690Z,14.33
2017-08-29T05:40:45.816Z,14.31
2017-08-29T05:41:13.807Z,14.3
2017-08-29T05:41:41.825Z,14.33
2017-08-29T05:42:09.930Z,14.2
2017-08-29T05:42:37.956Z,14.33
2017-08-29T05:43:05.774Z,14.36
2017-08-29T05:43:33.903Z,14.31
2017-08-29T05:44:01.713Z,14.34
2017-08-29T05:44:29.799Z,14.4
2017-08-29T05:44:57.890Z,14.36
2017-08-29T05:45:25.687Z,14.33
2017-08-29T05:45:53.773Z,14.31
2017-08-29T05:46:21.764Z,14.33
2017-08-29T05:46:49.769Z,14.36
2017-08-29T05:47:17.804Z,14.2
2017-08-29T05:47:45.697Z,14.33
2017-08-29T05:48:13.785Z,14.37
2017-08-29T05:48:41.795Z,14.34
2017-08-29T05:49:09.795Z,14.38
2017-08-29T05:49:37.882Z,14.31
2017-08-29T05:50:05.797Z,14.36
2017-08-29T05:50:33.891Z,14.34
2017-08-29T05:51:02.001Z,14.37
2017-08-29T05:51:30.086Z,14.34
2017-08-29T05:51:58.123Z,14.3
2017-08-29T05:52:26.230Z,14.34
2017-08-29T05:52:54.317Z,14.38
2017-08-29T05:53:22.415Z,14.41
2017-08-29T05:53:50.309Z,14.43
2017-08-29T05:54:18.336Z,14.52
2017-08-29T05:54:46.364Z,14.4
2017-08-29T05:55:14.251Z,14.41
2017-08-29T05:55:42.266Z,14.43
2017-08-29T05:56:10.385Z,14.38
2017-08-29T05:56:38.391Z,14.38
2017-08-29T05:57:06.505Z,14.44
2017-08-29T05:57:34.535Z,14.37
2017-08-29T05:58:02.549Z,14.4
2017-08-29T05:58:30.663Z,14.36
2017-08-29T05:58:58.577Z,14.36
2017-08-29T05:59:26.497Z,14.37
2017-08-29T05:59:54.600Z,14.31
2017-08-29T06:00:22.586Z,14.3
2017-08-29T06:00:50.695Z,14.34
2017-08-29T06:01:18.814Z,14.34
2017-08-29T06:01:47.019Z,14.37
2017-08-29T06:02:15.127Z,14.3
2017-08-29T06:02:43.247Z,14.41
2017-08-29T06:03:11.362Z,14.33
2017-08-29T06:03:39.378Z,14.3